Wetterdaten: Freitag, 12.09.2014
Datum Zeit Temp. A. Feuchte A. Luftdruck Regen Wind Richtung Richtung Sonnenschein ET UV Solar Taupunkt Windchill Windben Empfang
12.09.2014 00:00 11,5 C 92 % 1012,1 hPa 0,0 l/m 0,0 km/h (0 Bft) N-NW 342 0 min 0,000 mm 0,0 UV-I 0 W/m 10,2 C 11,5 C 0,0 km/h (0 Bft) 0,00 %
12.09.2014 00:15 11,5 C 92 % 1011,9 hPa 0,3 l/m 0,0 km/h (0 Bft) S-SW 209 0 min 0,000 mm 0,0 UV-I 0 W/m 10,2 C 11,5 C 0,0 km/h (0 Bft) 0,00 %
12.09.2014 00:30 11,5 C 92 % 1011,7 hPa 0,0 l/m 0,0 km/h (0 Bft) W-SW 255 0 min 0,000 mm 0,0 UV-I 0 W/m 10,2 C 11,5 C 0,0 km/h (0 Bft) 0,00 %
12.09.2014 00:45 11,4 C 92 % 1011,6 hPa 0,3 l/m 0,0 km/h (0 Bft) SW 225 0 min 0,000 mm 0,0 UV-I 0 W/m 10,1 C 11,4 C 4,0 km/h (1 Bft) 0,00 %
12.09.2014 01:00 11,3 C 92 % 1012,0 hPa 0,0 l/m 0,0 km/h (0 Bft) W-SW 256 0 min 0,000 mm 0,0 UV-I 0 W/m 10,0 C 11,3 C 0,0 km/h (0 Bft) 0,00 %
12.09.2014 01:15 11,3 C 92 % 1011,8 hPa 0,0 l/m 0,0 km/h (0 Bft) NW 307 0 min 0,000 mm 0,0 UV-I 0 W/m 10,0 C 11,3 C 4,0 km/h (1 Bft) 0,00 %
12.09.2014 01:30 11,3 C 92 % 1011,5 hPa 0,0 l/m 0,4 km/h (0 Bft) SW 227 0 min 0,000 mm 0,0 UV-I 0 W/m 10,0 C 11,3 C 4,0 km/h (1 Bft) 0,00 %
12.09.2014 01:45 11,1 C 92 % 1011,6 hPa 0,0 l/m 0,0 km/h (0 Bft) W-NW 289 0 min 0,000 mm 0,0 UV-I 0 W/m 9,8 C 11,1 C 4,0 km/h (1 Bft) 0,00 %
12.09.2014 02:00 11,1 C 92 % 1011,5 hPa 0,3 l/m 3,2 km/h (1 Bft) S-SW 195 0 min 0,000 mm 0,0 UV-I 0 W/m 9,8 C 11,1 C 0,0 km/h (0 Bft) 0,00 %
12.09.2014 02:15 11,0 C 92 % 1011,5 hPa 0,0 l/m 0,4 km/h (0 Bft) W-SW 256 0 min 0,000 mm 0,0 UV-I 0 W/m 9,8 C 11,0 C 11,9 km/h (2 Bft) 0,00 %
12.09.2014 02:30 11,0 C 92 % 1011,4 hPa 0,3 l/m 0,7 km/h (0 Bft) W-NW 298 0 min 0,000 mm 0,0 UV-I 0 W/m 9,8 C 11,0 C 4,0 km/h (1 Bft) 0,00 %
12.09.2014 02:45 10,9 C 93 % 1011,3 hPa 0,3 l/m 0,0 km/h (0 Bft) W-SW 256 0 min 0,000 mm 0,0 UV-I 0 W/m 9,8 C 10,9 C 4,0 km/h (1 Bft) 0,00 %
12.09.2014 03:00 10,9 C 93 % 1011,2 hPa 0,3 l/m 5,8 km/h (2 Bft) SW 216 0 min 0,000 mm 0,0 UV-I 0 W/m 9,8 C 10,9 C 4,0 km/h (1 Bft) 0,00 %
12.09.2014 03:15 10,8 C 93 % 1011,1 hPa 0,6 l/m 2,2 km/h (1 Bft) O-SO 113 0 min 0,000 mm 0,0 UV-I 0 W/m 9,7 C 10,8 C 4,0 km/h (1 Bft) 0,00 %
12.09.2014 03:30 10,8 C 93 % 1011,2 hPa 0,3 l/m 0,4 km/h (0 Bft) S 172 0 min 0,000 mm 0,0 UV-I 0 W/m 9,7 C 10,8 C 4,0 km/h (1 Bft) 0,00 %
12.09.2014 03:45 10,7 C 93 % 1011,1 hPa 0,0 l/m 0,4 km/h (0 Bft) O 79 0 min 0,000 mm 0,0 UV-I 0 W/m 9,6 C 10,7 C 0,0 km/h (0 Bft) 0,00 %
12.09.2014 04:00 10,6 C 93 % 1011,0 hPa 0,3 l/m 1,4 km/h (1 Bft) N-NW 345 0 min 0,000 mm 0,0 UV-I 0 W/m 9,5 C 10,6 C 4,0 km/h (1 Bft) 0,00 %
12.09.2014 04:15 10,6 C 93 % 1010,9 hPa 0,3 l/m 1,4 km/h (1 Bft) SO 135 0 min 0,000 mm 0,0 UV-I 0 W/m 9,5 C 10,6 C 4,0 km/h (1 Bft) 0,00 %
12.09.2014 04:30 10,6 C 93 % 1010,8 hPa 0,9 l/m 0,0 km/h (0 Bft) W 261 0 min 0,000 mm 0,0 UV-I 0 W/m 9,5 C 10,6 C 0,0 km/h (0 Bft) 0,00 %
12.09.2014 04:45 10,6 C 93 % 1010,7 hPa 0,3 l/m 0,7 km/h (0 Bft) SW 229 0 min 0,000 mm 0,0 UV-I 0 W/m 9,5 C 10,6 C 4,0 km/h (1 Bft) 0,00 %
12.09.2014 05:00 10,6 C 93 % 1010,6 hPa 0,0 l/m 2,2 km/h (1 Bft) N 351 0 min 0,000 mm 0,0 UV-I 0 W/m 9,5 C 10,6 C 4,0 km/h (1 Bft) 0,00 %
12.09.2014 05:15 10,6 C 93 % 1010,5 hPa 0,0 l/m 0,0 km/h (0 Bft) O-SO 112 0 min 0,000 mm 0,0 UV-I 0 W/m 9,5 C 10,6 C 7,9 km/h (2 Bft) 0,00 %
12.09.2014 05:30 10,6 C 93 % 1010,3 hPa 0,6 l/m 1,4 km/h (1 Bft) N 3 0 min 0,000 mm 0,0 UV-I 0 W/m 9,5 C 10,6 C 4,0 km/h (1 Bft) 0,00 %
12.09.2014 05:45 10,6 C 93 % 1010,3 hPa 0,9 l/m 1,4 km/h (1 Bft) W-SW 237 0 min 0,000 mm 0,0 UV-I 0 W/m 9,5 C 10,6 C 4,0 km/h (1 Bft) 0,00 %
12.09.2014 06:00 10,5 C 93 % 1010,1 hPa 0,3 l/m 1,4 km/h (1 Bft) W-SW 243 0 min 0,000 mm 0,0 UV-I 0 W/m 9,4 C 10,5 C 4,0 km/h (1 Bft) 0,00 %
12.09.2014 06:15 10,4 C 92 % 1010,4 hPa 0,6 l/m 0,4 km/h (0 Bft) SW 222 0 min 0,000 mm 0,0 UV-I 0 W/m 9,2 C 10,4 C 4,0 km/h (1 Bft) 0,00 %
12.09.2014 06:30 10,3 C 92 % 1010,0 hPa 0,3 l/m 1,4 km/h (1 Bft) SW 222 0 min 0,000 mm 0,0 UV-I 0 W/m 9,1 C 10,3 C 4,0 km/h (1 Bft) 0,00 %
12.09.2014 06:45 10,4 C 92 % 1010,2 hPa 0,3 l/m 2,9 km/h (1 Bft) NO 51 0 min 0,000 mm 0,0 UV-I 0 W/m 9,2 C 10,4 C 4,0 km/h (1 Bft) 0,00 %
12.09.2014 07:00 10,4 C 92 % 1010,2 hPa 0,0 l/m 0,7 km/h (0 Bft) W-NW 291 0 min 0,000 mm 0,0 UV-I 0 W/m 9,2 C 10,4 C 4,0 km/h (1 Bft) 0,00 %
12.09.2014 07:15 10,4 C 92 % 1010,2 hPa 0,0 l/m 0,4 km/h (0 Bft) W-SW 256 0 min 0,000 mm 0,0 UV-I 1 W/m 9,2 C 10,4 C 4,0 km/h (1 Bft) 0,00 %
12.09.2014 07:30 10,5 C 91 % 1010,2 hPa 0,3 l/m 1,8 km/h (1 Bft) SW 227 0 min 0,000 mm 1,0 UV-I 10 W/m 9,1 C 10,5 C 7,9 km/h (2 Bft) 0,00 %
12.09.2014 07:45 10,6 C 91 % 1010,1 hPa 0,0 l/m 1,4 km/h (1 Bft) W-NW 291 0 min 0,000 mm 1,0 UV-I 30 W/m 9,2 C 10,6 C 4,0 km/h (1 Bft) 0,00 %
12.09.2014 08:00 10,6 C 90 % 1010,2 hPa 0,0 l/m 3,2 km/h (1 Bft) SW 226 0 min 0,000 mm 1,0 UV-I 29 W/m 9,0 C 10,6 C 7,9 km/h (2 Bft) 0,00 %
12.09.2014 08:15 10,6 C 90 % 1010,4 hPa 0,0 l/m 4,3 km/h (1 Bft) S-SO 148 0 min 0,000 mm 1,0 UV-I 35 W/m 9,0 C 10,6 C 7,9 km/h (2 Bft) 0,00 %
12.09.2014 08:30 10,7 C 89 % 1010,4 hPa 0,0 l/m 0,7 km/h (0 Bft) W-NW 303 0 min 0,000 mm 1,0 UV-I 57 W/m 9,0 C 10,7 C 4,0 km/h (1 Bft) 0,00 %
12.09.2014 08:45 10,7 C 89 % 1010,5 hPa 0,0 l/m 3,2 km/h (1 Bft) W-SW 251 0 min 0,000 mm 1,0 UV-I 80 W/m 9,0 C 10,7 C 7,9 km/h (2 Bft) 0,00 %
12.09.2014 09:00 10,8 C 89 % 1010,6 hPa 0,0 l/m 4,3 km/h (1 Bft) W-SW 252 0 min 0,000 mm 1,0 UV-I 63 W/m 9,1 C 10,8 C 4,0 km/h (1 Bft) 0,00 %
12.09.2014 09:15 10,9 C 89 % 1010,7 hPa 0,0 l/m 0,7 km/h (0 Bft) W 281 0 min 0,000 mm 1,0 UV-I 90 W/m 9,2 C 10,9 C 7,9 km/h (2 Bft) 0,00 %
12.09.2014 09:30 11,0 C 87 % 1010,8 hPa 0,0 l/m 3,2 km/h (1 Bft) W-SW 255 0 min 0,000 mm 2,0 UV-I 86 W/m 8,9 C 11,0 C 11,9 km/h (2 Bft) 0,00 %
12.09.2014 09:45 11,0 C 87 % 1011,2 hPa 0,0 l/m 0,7 km/h (0 Bft) W-SW 256 0 min 0,000 mm 2,0 UV-I 58 W/m 8,9 C 11,0 C 11,9 km/h (2 Bft) 0,00 %
12.09.2014 10:00 11,1 C 87 % 1011,0 hPa 0,3 l/m 3,2 km/h (1 Bft) N-NW 340 0 min 0,000 mm 2,0 UV-I 143 W/m 9,0 C 11,1 C 0,0 km/h (0 Bft) 0,00 %
12.09.2014 10:15 11,3 C 88 % 1011,1 hPa 0,3 l/m 8,3 km/h (2 Bft) O 86 0 min 0,000 mm 4,0 UV-I 209 W/m 9,4 C 10,0 C 4,0 km/h (1 Bft) 0,00 %
12.09.2014 10:30 11,5 C 88 % 1011,3 hPa 0,0 l/m 4,0 km/h (1 Bft) S-SO 156 0 min 0,000 mm 2,0 UV-I 186 W/m 9,6 C 11,5 C 11,9 km/h (2 Bft) 0,00 %
12.09.2014 10:45 11,5 C 88 % 1011,4 hPa 0,0 l/m 0,0 km/h (0 Bft) N-NW 348 0 min 0,000 mm 2,0 UV-I 105 W/m 9,6 C 11,5 C 4,0 km/h (1 Bft) 0,00 %
12.09.2014 11:00 12,1 C 86 % 1011,2 hPa 0,0 l/m 0,4 km/h (0 Bft) NW 312 0 min 0,000 mm 3,0 UV-I 196 W/m 9,8 C 12,1 C 11,9 km/h (2 Bft) 0,00 %
12.09.2014 11:15 12,4 C 85 % 1011,5 hPa 0,0 l/m 5,4 km/h (1 Bft) O-SO 122 0 min 0,000 mm 4,0 UV-I 219 W/m 9,9 C 12,4 C 4,0 km/h (1 Bft) 0,00 %
12.09.2014 11:30 12,3 C 85 % 1011,4 hPa 0,0 l/m 0,4 km/h (0 Bft) W-SW 256 0 min 0,000 mm 3,0 UV-I 167 W/m 9,9 C 12,3 C 11,9 km/h (2 Bft) 0,00 %
12.09.2014 11:45 12,5 C 85 % 1011,3 hPa 0,0 l/m 7,9 km/h (2 Bft) W-SW 240 0 min 0,000 mm 3,0 UV-I 214 W/m 10,0 C 11,5 C 4,0 km/h (1 Bft) 0,00 %
12.09.2014 12:00 13,0 C 82 % 1011,3 hPa 0,0 l/m 0,7 km/h (0 Bft) S 171 0 min 0,000 mm 3,0 UV-I 242 W/m 10,0 C 13,0 C 4,0 km/h (1 Bft) 0,00 %
12.09.2014 12:15 13,8 C 79 % 1011,2 hPa 0,0 l/m 5,8 km/h (2 Bft) O-SO 108 0 min 0,000 mm 3,0 UV-I 355 W/m 10,2 C 13,8 C 4,0 km/h (1 Bft) 0,00 %
12.09.2014 12:30 13,8 C 80 % 1011,2 hPa 0,0 l/m 0,7 km/h (0 Bft) O-SO 109 0 min 0,000 mm 3,0 UV-I 244 W/m 10,4 C 13,8 C 4,0 km/h (1 Bft) 0,00 %
12.09.2014 12:45 13,9 C 76 % 1011,3 hPa 0,0 l/m 1,8 km/h (1 Bft) N 353 0 min 0,000 mm 2,0 UV-I 232 W/m 9,7 C 13,9 C 0,0 km/h (0 Bft) 0,00 %
12.09.2014 13:00 14,0 C 74 % 1011,6 hPa 0,0 l/m 4,0 km/h (1 Bft) SW 236 0 min 0,000 mm 3,0 UV-I 266 W/m 9,4 C 14,0 C 4,0 km/h (1 Bft) 0,00 %
12.09.2014 13:15 13,6 C 75 % 1012,1 hPa 0,0 l/m 1,4 km/h (1 Bft) N-NW 338 0 min 0,000 mm 4,0 UV-I 144 W/m 9,3 C 13,6 C 4,0 km/h (1 Bft) 0,00 %
12.09.2014 13:30 13,8 C 75 % 1012,2 hPa 0,0 l/m 0,0 km/h (0 Bft) W-SW 255 0 min 0,000 mm 5,0 UV-I 165 W/m 9,4 C 13,8 C 11,9 km/h (2 Bft) 0,00 %
12.09.2014 13:45 14,1 C 73 % 1011,9 hPa 0,0 l/m 0,7 km/h (0 Bft) W-SW 256 0 min 0,000 mm 2,0 UV-I 239 W/m 9,3 C 14,1 C 7,9 km/h (2 Bft) 0,00 %
12.09.2014 14:00 14,5 C 72 % 1011,7 hPa 0,0 l/m 1,4 km/h (1 Bft) W-NW 299 0 min 0,000 mm 3,0 UV-I 238 W/m 9,5 C 14,5 C 4,0 km/h (1 Bft) 0,00 %
12.09.2014 14:15 15,9 C 68 % 1011,2 hPa 0,0 l/m 7,2 km/h (2 Bft) S-SW 200 15 min 0,000 mm 2,0 UV-I 619 W/m 10,0 C 15,5 C 0,0 km/h (0 Bft) 0,00 %
12.09.2014 14:30 15,6 C 69 % 1011,7 hPa 0,0 l/m 4,0 km/h (1 Bft) SW 219 0 min 0,000 mm 2,0 UV-I 352 W/m 9,9 C 15,6 C 4,0 km/h (1 Bft) 0,00 %
12.09.2014 14:45 14,9 C 69 % 1012,3 hPa 0,0 l/m 0,7 km/h (0 Bft) W-SW 253 0 min 0,000 mm 2,0 UV-I 206 W/m 9,3 C 14,9 C 0,0 km/h (0 Bft) 0,00 %
12.09.2014 15:00 15,1 C 69 % 1012,4 hPa 0,0 l/m 0,0 km/h (0 Bft) W-SW 244 0 min 0,000 mm 1,0 UV-I 264 W/m 9,5 C 15,1 C 0,0 km/h (0 Bft) 0,00 %
12.09.2014 15:15 14,9 C 70 % 1012,4 hPa 0,0 l/m 0,7 km/h (0 Bft) S-SW 212 0 min 0,000 mm 1,0 UV-I 187 W/m 9,5 C 14,9 C 0,0 km/h (0 Bft) 0,00 %
12.09.2014 15:30 14,9 C 69 % 1012,5 hPa 0,0 l/m 0,0 km/h (0 Bft) SW 232 0 min 0,000 mm 1,0 UV-I 212 W/m 9,3 C 14,9 C 4,0 km/h (1 Bft) 0,00 %
12.09.2014 15:45 14,7 C 70 % 1012,7 hPa 0,0 l/m 0,0 km/h (0 Bft) W-SW 252 0 min 0,000 mm 1,0 UV-I 141 W/m 9,3 C 14,7 C 0,0 km/h (0 Bft) 0,00 %
12.09.2014 16:00 14,5 C 70 % 1012,7 hPa 0,0 l/m 0,0 km/h (0 Bft) W-NW 295 0 min 0,000 mm 1,0 UV-I 116 W/m 9,1 C 14,5 C 0,0 km/h (0 Bft) 0,00 %
12.09.2014 16:15 14,3 C 69 % 1012,8 hPa 0,0 l/m 0,4 km/h (0 Bft) SW 233 0 min 0,000 mm 1,0 UV-I 105 W/m 8,7 C 14,3 C 0,0 km/h (0 Bft) 0,00 %
12.09.2014 16:30 14,1 C 71 % 1013,0 hPa 0,0 l/m 0,0 km/h (0 Bft) W-SW 252 0 min 0,000 mm 1,0 UV-I 98 W/m 8,9 C 14,1 C 4,0 km/h (1 Bft) 0,00 %
12.09.2014 16:45 14,1 C 71 % 1013,2 hPa 0,0 l/m 0,0 km/h (0 Bft) SW 221 0 min 0,000 mm 1,0 UV-I 89 W/m 8,9 C 14,1 C 0,0 km/h (0 Bft) 0,00 %
12.09.2014 17:00 14,0 C 72 % 1013,2 hPa 0,0 l/m 0,0 km/h (0 Bft) SW 231 0 min 0,000 mm 1,0 UV-I 82 W/m 9,0 C 14,0 C 0,0 km/h (0 Bft) 0,00 %
12.09.2014 17:15 14,0 C 73 % 1013,7 hPa 0,0 l/m 1,4 km/h (1 Bft) S-SW 211 0 min 0,000 mm 1,0 UV-I 61 W/m 9,2 C 14,0 C 0,0 km/h (0 Bft) 0,00 %
12.09.2014 17:30 13,7 C 73 % 1013,9 hPa 0,0 l/m 0,0 km/h (0 Bft) SW 222 0 min 0,000 mm 1,0 UV-I 59 W/m 8,9 C 13,7 C 0,0 km/h (0 Bft) 0,00 %
12.09.2014 17:45 13,9 C 73 % 1013,8 hPa 0,0 l/m 0,0 km/h (0 Bft) SW 225 0 min 0,000 mm 1,0 UV-I 56 W/m 9,1 C 13,9 C 0,0 km/h (0 Bft) 0,00 %
12.09.2014 18:00 14,0 C 73 % 1013,8 hPa 0,0 l/m 0,0 km/h (0 Bft) SO 135 0 min 0,000 mm 0,0 UV-I 106 W/m 9,2 C 14,0 C 0,0 km/h (0 Bft) 0,00 %
12.09.2014 18:15 14,1 C 73 % 1013,9 hPa 0,0 l/m 0,0 km/h (0 Bft) SW 218 0 min 0,000 mm 0,0 UV-I 69 W/m 9,3 C 14,1 C 0,0 km/h (0 Bft) 0,00 %
12.09.2014 18:30 13,7 C 74 % 1014,1 hPa 0,0 l/m 0,0 km/h (0 Bft) W-SW 250 0 min 0,000 mm 0,0 UV-I 48 W/m 9,2 C 13,7 C 4,0 km/h (1 Bft) 0,00 %
12.09.2014 18:45 13,0 C 76 % 1014,2 hPa 0,0 l/m 0,0 km/h (0 Bft) S 175 0 min 0,000 mm 0,0 UV-I 25 W/m 8,9 C 13,0 C 0,0 km/h (0 Bft) 0,00 %
12.09.2014 19:00 12,6 C 75 % 1014,3 hPa 0,0 l/m 0,0 km/h (0 Bft) W-SW 247 0 min 0,000 mm 0,0 UV-I 9 W/m 8,3 C 12,6 C 0,0 km/h (0 Bft) 0,00 %
12.09.2014 19:15 12,6 C 75 % 1014,8 hPa 0,0 l/m 0,4 km/h (0 Bft) S 190 0 min 0,000 mm 0,0 UV-I 0 W/m 8,3 C 12,6 C 0,0 km/h (0 Bft) 0,00 %
12.09.2014 19:30 12,5 C 74 % 1014,8 hPa 0,0 l/m 0,0 km/h (0 Bft) W-SW 256 0 min 0,000 mm 0,0 UV-I 0 W/m 8,0 C 12,5 C 0,0 km/h (0 Bft) 0,00 %
12.09.2014 19:45 12,5 C 74 % 1015,0 hPa 0,0 l/m 0,0 km/h (0 Bft) SO 131 0 min 0,000 mm 0,0 UV-I 0 W/m 8,0 C 12,5 C 0,0 km/h (0 Bft) 0,00 %
12.09.2014 20:00 12,4 C 78 % 1015,2 hPa 0,0 l/m 0,0 km/h (0 Bft) SO 131 0 min 0,000 mm 0,0 UV-I 0 W/m 8,7 C 12,4 C 0,0 km/h (0 Bft) 0,00 %
12.09.2014 20:15 12,2 C 82 % 1015,1 hPa 0,0 l/m 0,0 km/h (0 Bft) W-SW 256 0 min 0,000 mm 0,0 UV-I 0 W/m 9,2 C 12,2 C 0,0 km/h (0 Bft) 0,00 %
12.09.2014 20:30 12,0 C 83 % 1014,9 hPa 0,0 l/m 0,0 km/h (0 Bft) W-SW 251 0 min 0,000 mm 0,0 UV-I 0 W/m 9,2 C 12,0 C 0,0 km/h (0 Bft) 0,00 %
12.09.2014 20:45 11,9 C 83 % 1015,3 hPa 0,0 l/m 0,0 km/h (0 Bft) SW 218 0 min 0,000 mm 0,0 UV-I 0 W/m 9,1 C 11,9 C 0,0 km/h (0 Bft) 0,00 %
12.09.2014 21:00 11,7 C 85 % 1015,4 hPa 0,0 l/m 0,0 km/h (0 Bft) SW 227 0 min 0,000 mm 0,0 UV-I 0 W/m 9,3 C 11,7 C 0,0 km/h (0 Bft) 0,00 %
12.09.2014 21:15 11,6 C 87 % 1015,5 hPa 0,0 l/m 0,0 km/h (0 Bft) S-SW 192 0 min 0,000 mm 0,0 UV-I 0 W/m 9,5 C 11,6 C 0,0 km/h (0 Bft) 0,00 %
12.09.2014 21:30 11,5 C 88 % 1015,5 hPa 0,0 l/m 0,0 km/h (0 Bft) S 182 0 min 0,000 mm 0,0 UV-I 0 W/m 9,6 C 11,5 C 0,0 km/h (0 Bft) 0,00 %
12.09.2014 21:45 11,5 C 86 % 1015,5 hPa 0,0 l/m 0,0 km/h (0 Bft) SW 219 0 min 0,000 mm 0,0 UV-I 0 W/m 9,2 C 11,5 C 0,0 km/h (0 Bft) 0,00 %
12.09.2014 22:00 11,5 C 85 % 1015,6 hPa 0,0 l/m 0,0 km/h (0 Bft) SW 231 0 min 0,000 mm 0,0 UV-I 0 W/m 9,1 C 11,5 C 0,0 km/h (0 Bft) 0,00 %
12.09.2014 22:15 11,5 C 87 % 1015,8 hPa 0,0 l/m 0,0 km/h (0 Bft) S 179 0 min 0,000 mm 0,0 UV-I 0 W/m 9,4 C 11,5 C 0,0 km/h (0 Bft) 0,00 %
12.09.2014 22:30 11,5 C 87 % 1016,0 hPa 0,0 l/m 0,0 km/h (0 Bft) SW 218 0 min 0,000 mm 0,0 UV-I 0 W/m 9,4 C 11,5 C 0,0 km/h (0 Bft) 0,00 %
12.09.2014 22:45 11,3 C 88 % 1016,0 hPa 0,0 l/m 0,0 km/h (0 Bft) S-SW 196 0 min 0,000 mm 0,0 UV-I 0 W/m 9,4 C 11,3 C 0,0 km/h (0 Bft) 0,00 %
12.09.2014 23:00 11,2 C 87 % 1016,0 hPa 0,0 l/m 0,0 km/h (0 Bft) W-SW 252 0 min 0,000 mm 0,0 UV-I 0 W/m 9,1 C 11,2 C 0,0 km/h (0 Bft) 0,00 %
12.09.2014 23:15 10,9 C 89 % 1016,3 hPa 0,0 l/m 0,0 km/h (0 Bft) S-SW 197 0 min 0,000 mm 0,0 UV-I 0 W/m 9,2 C 10,9 C 0,0 km/h (0 Bft) 0,00 %
12.09.2014 23:30 10,8 C 89 % 1016,5 hPa 0,0 l/m 0,0 km/h (0 Bft) W-SW 251 0 min 0,000 mm 0,0 UV-I 0 W/m 9,1 C 10,8 C 0,0 km/h (0 Bft) 0,00 %
12.09.2014 23:45 10,8 C 89 % 1016,5 hPa 0,0 l/m 0,0 km/h (0 Bft) SW 224 0 min 0,000 mm 0,0 UV-I 0 W/m 9,1 C 10,8 C 0,0 km/h (0 Bft) 0,00 %
_ Min-Zeit 06:30 14:15 06:30 - 00:00 - - - - - - 19:30 10:15 00:00 00:00
Minimum _ 10,3 C 68 % 1010,0 hPa - 0,0 km/h (0 Bft) - - - - - - 8,0 C 10,0 C 0,0 km/h (0 Bft) 0,00 %
_ Max-Zeit 14:15 02:45 23:30 04:30 10:15 - - 14:15 00:00 13:30 14:15 12:30 14:30 02:15 00:00
Maximum _ 15,9 C 93 % 1016,5 hPa 0,9 l/m 8,3 km/h
O (2 Bft)
- - 15 min 0,000 mm 5,0 UV-I 619 W/m 10,4 C 15,6 C 11,9 km/h
W-SW (2 Bft)
0,00 %
Durchschnitt _ 12,1 C 84 % 1012,4 hPa #8,4 l/m 1,2 km/h (1 Bft) SW - #15 min. #0,000 mm 1,9 UV-I 146 W/m 9,4 C 12,1 C 3,1 km/h (1 Bft) 0,00 %